createdAt,value
2023-02-28T00:02:11.634Z,55.66
2023-02-28T00:05:18.149Z,55.00
2023-02-28T00:08:22.503Z,54.41
2023-02-28T00:11:26.985Z,54.85
2023-02-28T00:14:32.822Z,54.16
2023-02-28T00:17:37.720Z,53.31
2023-02-28T00:20:42.222Z,53.28
2023-02-28T00:23:46.606Z,53.78
2023-02-28T00:26:50.877Z,53.70
2023-02-28T00:29:56.040Z,54.31
2023-02-28T00:33:01.182Z,53.50
2023-02-28T00:36:08.236Z,53.34
2023-02-28T00:39:14.319Z,52.91
2023-02-28T00:42:18.609Z,53.38
2023-02-28T00:45:25.396Z,53.11
2023-02-28T00:48:30.297Z,51.54
2023-02-28T00:51:34.628Z,51.74
2023-02-28T00:54:38.875Z,53.18
2023-02-28T00:57:45.578Z,53.10
2023-02-28T01:00:50.706Z,52.72
2023-02-28T01:03:55.002Z,53.51
2023-02-28T01:06:58.908Z,54.49
2023-02-28T01:10:03.672Z,53.29
2023-02-28T01:13:08.008Z,53.26
2023-02-28T01:16:15.340Z,53.40
2023-02-28T01:19:19.639Z,54.14
2023-02-28T01:22:23.886Z,54.26
2023-02-28T01:25:28.191Z,54.43
2023-02-28T01:28:32.126Z,54.82
2023-02-28T01:31:38.543Z,54.29
2023-02-28T01:34:45.692Z,53.43
2023-02-28T01:37:49.937Z,53.56
2023-02-28T01:40:54.168Z,53.62
2023-02-28T01:44:07.324Z,53.99
2023-02-28T01:47:11.269Z,53.41
2023-02-28T01:50:20.414Z,53.64
2023-02-28T01:53:32.233Z,53.72
2023-02-28T01:56:38.603Z,53.83
2023-02-28T01:59:52.813Z,53.50
2023-02-28T02:03:01.681Z,53.46
2023-02-28T02:06:05.775Z,52.55
2023-02-28T02:09:09.971Z,52.85
2023-02-28T02:12:32.632Z,52.46
2023-02-28T02:15:46.337Z,54.17
2023-02-28T02:19:00.661Z,54.18
2023-02-28T02:22:28.526Z,54.20
2023-02-28T02:25:51.740Z,53.05
2023-02-28T02:29:06.076Z,52.31
2023-02-28T02:33:01.300Z,52.62
2023-02-28T02:36:32.637Z,55.50
2023-02-28T02:39:55.250Z,55.43
2023-02-28T02:43:09.144Z,54.30
2023-02-28T02:46:33.130Z,54.53
2023-02-28T02:49:40.482Z,54.80
2023-02-28T02:52:50.564Z,54.24
2023-02-28T02:55:57.354Z,53.32
2023-02-28T02:59:08.198Z,53.09
2023-02-28T03:02:16.414Z,53.36
2023-02-28T03:05:28.704Z,52.50
2023-02-28T03:08:37.722Z,54.00
2023-02-28T03:11:44.070Z,53.61
2023-02-28T03:15:21.953Z,52.39
2023-02-28T03:19:00.074Z,52.81
2023-02-28T03:22:13.785Z,52.82
2023-02-28T03:25:54.622Z,52.18
2023-02-28T03:29:14.762Z,52.77
2023-02-28T03:32:41.411Z,53.90
2023-02-28T03:35:55.166Z,54.83
2023-02-28T03:39:09.253Z,54.75
2023-02-28T03:42:22.637Z,54.17
2023-02-28T03:45:32.027Z,54.17
2023-02-28T03:49:02.598Z,54.55
2023-02-28T03:52:09.570Z,55.19
2023-02-28T03:55:16.916Z,55.49
2023-02-28T03:58:41.179Z,56.27
2023-02-28T04:01:48.574Z,61.17
2023-02-28T04:04:52.956Z,61.61
2023-02-28T04:08:06.588Z,63.33
2023-02-28T04:11:32.643Z,65.86
2023-02-28T04:14:37.103Z,64.74
2023-02-28T04:17:40.997Z,66.55
2023-02-28T04:20:45.094Z,70.03
2023-02-28T04:23:48.992Z,70.74
2023-02-28T04:26:55.614Z,69.46
2023-02-28T04:29:59.881Z,72.12
2023-02-28T04:33:03.858Z,73.54
2023-02-28T04:36:11.122Z,74.26
2023-02-28T04:39:15.763Z,72.56
2023-02-28T04:42:20.034Z,70.43
2023-02-28T04:45:24.912Z,73.06
2023-02-28T04:48:34.701Z,72.92
2023-02-28T04:51:39.650Z,75.79
2023-02-28T04:54:43.720Z,72.73
2023-02-28T04:57:47.640Z,70.20
2023-02-28T05:00:55.412Z,71.76
2023-02-28T05:04:02.223Z,71.77
2023-02-28T05:07:06.514Z,70.96
2023-02-28T05:10:11.784Z,70.73
2023-02-28T05:13:16.385Z,71.15
2023-02-28T05:16:21.889Z,69.82
2023-02-28T05:19:26.477Z,69.56
2023-02-28T05:22:30.785Z,68.20
2023-02-28T05:25:35.483Z,67.92
2023-02-28T05:28:40.055Z,68.12
2023-02-28T05:31:44.385Z,68.49
2023-02-28T05:34:48.790Z,69.03
2023-02-28T05:37:53.546Z,69.40
2023-02-28T05:40:58.129Z,69.24
2023-02-28T05:44:02.502Z,71.66
2023-02-28T05:47:06.364Z,71.75
2023-02-28T05:50:12.386Z,71.38
2023-02-28T05:53:16.155Z,71.16
2023-02-28T05:56:20.451Z,70.21
2023-02-28T05:59:24.759Z,70.06
2023-02-28T06:02:30.117Z,70.78
2023-02-28T06:05:34.928Z,70.74
2023-02-28T06:08:39.794Z,71.17
2023-02-28T06:11:44.584Z,72.66
2023-02-28T06:14:48.873Z,73.07
2023-02-28T06:17:54.149Z,73.11
2023-02-28T06:20:58.613Z,73.94
2023-02-28T06:24:03.354Z,74.86
2023-02-28T06:27:07.746Z,75.45
2023-02-28T06:30:13.604Z,75.86
2023-02-28T06:33:18.486Z,72.94
2023-02-28T06:36:22.835Z,72.81
2023-02-28T06:39:27.128Z,74.20
2023-02-28T06:42:32.532Z,75.85
2023-02-28T06:45:37.720Z,77.60
2023-02-28T06:48:42.422Z,78.25
2023-02-28T06:51:47.028Z,74.87
2023-02-28T06:55:01.532Z,76.29
2023-02-28T06:58:16.277Z,76.28
2023-02-28T07:01:21.173Z,77.90
2023-02-28T07:04:25.722Z,78.58
2023-02-28T07:07:30.155Z,77.74
2023-02-28T07:10:35.609Z,77.51
2023-02-28T07:13:39.470Z,76.47
2023-02-28T07:16:43.420Z,77.83
2023-02-28T07:19:48.103Z,77.96
2023-02-28T07:22:58.056Z,78.58
2023-02-28T07:26:02.723Z,80.14
2023-02-28T07:29:07.004Z,79.81
2023-02-28T07:32:11.412Z,80.62
2023-02-28T07:35:17.159Z,80.20
2023-02-28T07:38:21.443Z,83.04
2023-02-28T07:41:27.664Z,82.35
2023-02-28T07:44:31.997Z,82.86
2023-02-28T07:47:36.529Z,82.33
2023-02-28T07:50:40.441Z,82.92
2023-02-28T07:53:44.461Z,83.19
2023-02-28T07:56:50.171Z,85.32
2023-02-28T07:59:55.148Z,86.46
2023-02-28T08:02:59.878Z,87.76
2023-02-28T08:06:08.570Z,88.28
2023-02-28T08:09:13.390Z,86.41
2023-02-28T08:12:18.040Z,85.92
2023-02-28T08:15:22.278Z,85.56
2023-02-28T08:18:26.826Z,84.25
2023-02-28T08:21:31.528Z,84.30
2023-02-28T08:24:36.410Z,82.30
2023-02-28T08:27:40.601Z,82.25
2023-02-28T08:30:44.585Z,81.70
2023-02-28T08:33:51.655Z,82.15
2023-02-28T08:36:55.686Z,82.79
2023-02-28T08:39:59.426Z,83.19
2023-02-28T08:43:03.742Z,81.48
2023-02-28T08:46:09.260Z,82.09
2023-02-28T08:49:13.650Z,82.41
2023-02-28T08:52:18.842Z,83.80
2023-02-28T08:55:23.456Z,84.45
2023-02-28T08:58:28.500Z,83.77
2023-02-28T09:01:34.693Z,84.53
2023-02-28T09:04:39.082Z,84.16
2023-02-28T09:07:44.155Z,83.28
2023-02-28T09:10:48.986Z,82.79
2023-02-28T09:13:53.264Z,83.66
2023-02-28T09:16:57.691Z,83.24
2023-02-28T09:20:02.139Z,82.05
2023-02-28T09:23:06.872Z,81.45
2023-02-28T09:26:16.753Z,82.08
2023-02-28T09:29:22.234Z,82.08
2023-02-28T09:32:26.470Z,82.18
2023-02-28T09:35:32.483Z,82.78
2023-02-28T09:38:37.294Z,82.16
2023-02-28T09:41:52.413Z,80.86
2023-02-28T09:44:58.784Z,79.43
2023-02-28T09:48:09.392Z,79.70
2023-02-28T09:51:50.776Z,80.59
2023-02-28T09:54:54.781Z,79.20
2023-02-28T09:58:01.648Z,77.97
2023-02-28T10:01:20.084Z,78.09
2023-02-28T10:04:39.523Z,78.73
2023-02-28T10:07:56.963Z,78.00
2023-02-28T10:11:06.204Z,79.25
2023-02-28T10:14:23.608Z,79.47
2023-02-28T10:17:54.900Z,80.34
2023-02-28T10:21:07.479Z,80.14
2023-02-28T10:24:32.278Z,80.20
2023-02-28T10:27:37.163Z,81.38
2023-02-28T10:30:48.781Z,80.83
2023-02-28T10:33:53.161Z,80.24
2023-02-28T10:36:58.300Z,80.86
2023-02-28T10:40:02.884Z,80.39
2023-02-28T10:43:20.933Z,81.69
2023-02-28T10:46:29.772Z,80.99
2023-02-28T10:49:36.679Z,79.92
2023-02-28T10:52:44.536Z,79.49
2023-02-28T10:56:10.580Z,81.09
2023-02-28T10:59:29.412Z,80.68
2023-02-28T11:02:44.710Z,80.47
2023-02-28T11:05:50.690Z,80.90
2023-02-28T11:09:02.111Z,80.97
2023-02-28T11:12:09.540Z,79.69
2023-02-28T11:16:12.380Z,79.81
2023-02-28T11:19:42.127Z,80.22
2023-02-28T11:22:48.162Z,78.71
2023-02-28T11:25:58.859Z,79.00
2023-02-28T11:29:23.726Z,78.99
2023-02-28T11:32:30.717Z,78.26
2023-02-28T11:35:38.796Z,77.27
2023-02-28T11:46:29.101Z,78.14
2023-02-28T11:49:52.208Z,78.88
2023-02-28T11:53:03.240Z,79.23
2023-02-28T11:56:39.009Z,78.41
2023-02-28T12:00:02.979Z,77.77
2023-02-28T12:03:29.795Z,77.75
2023-02-28T12:07:11.182Z,78.23
2023-02-28T12:10:26.509Z,77.80
2023-02-28T12:13:50.551Z,77.38
2023-02-28T12:17:20.820Z,76.17
2023-02-28T12:20:31.731Z,76.23
2023-02-28T12:24:07.205Z,76.06
2023-02-28T12:27:16.916Z,74.42
2023-02-28T12:30:52.274Z,75.24
2023-02-28T12:34:04.117Z,74.54
2023-02-28T12:37:18.691Z,75.84
2023-02-28T12:40:31.305Z,75.85
2023-02-28T12:43:43.060Z,75.82
2023-02-28T12:46:54.908Z,74.57
2023-02-28T12:50:04.280Z,76.39
2023-02-28T12:53:24.945Z,76.73
2023-02-28T12:56:39.432Z,76.41
2023-02-28T13:00:01.947Z,76.96
2023-02-28T13:03:35.455Z,77.50
2023-02-28T13:07:04.048Z,77.17
2023-02-28T13:10:09.849Z,76.54
2023-02-28T13:13:18.899Z,73.91
2023-02-28T13:16:23.573Z,71.39
2023-02-28T13:19:35.601Z,72.12
2023-02-28T13:22:48.993Z,69.13
2023-02-28T13:25:55.432Z,69.22
2023-02-28T13:29:06.550Z,67.49
2023-02-28T13:32:11.183Z,66.02
2023-02-28T13:35:17.088Z,67.36
2023-02-28T13:38:27.206Z,62.42
2023-02-28T13:41:31.360Z,64.39
2023-02-28T13:45:04.280Z,63.36
2023-02-28T13:48:26.826Z,60.76
2023-02-28T13:51:51.263Z,63.09
2023-02-28T13:55:37.895Z,56.86
2023-02-28T13:58:52.337Z,61.62
2023-02-28T14:02:02.438Z,61.21
2023-02-28T14:05:21.550Z,60.56
2023-02-28T14:08:25.953Z,63.03
2023-02-28T14:11:34.765Z,61.99
2023-02-28T14:14:39.007Z,62.71
2023-02-28T14:17:43.597Z,60.77
2023-02-28T14:20:51.210Z,60.48
2023-02-28T14:24:13.668Z,59.88
2023-02-28T14:27:39.287Z,61.85
2023-02-28T14:30:46.594Z,60.89
2023-02-28T14:34:21.463Z,59.71
2023-02-28T14:37:33.139Z,61.39
2023-02-28T14:40:40.613Z,62.14
2023-02-28T14:43:57.497Z,61.35
2023-02-28T14:47:10.695Z,60.17
2023-02-28T14:50:29.346Z,57.68
2023-02-28T14:53:39.406Z,60.65
2023-02-28T14:56:43.930Z,61.53
2023-02-28T14:59:48.249Z,61.43
2023-02-28T15:02:53.508Z,62.69
2023-02-28T15:06:00.246Z,60.82
2023-02-28T15:09:19.304Z,61.28
2023-02-28T15:16:01.875Z,60.36
2023-02-28T15:19:18.746Z,59.79
2023-02-28T15:22:37.450Z,55.84
2023-02-28T15:25:43.677Z,59.64
2023-02-28T15:28:47.828Z,59.92
2023-02-28T15:31:58.416Z,59.67
2023-02-28T15:35:22.886Z,58.08
2023-02-28T15:38:29.236Z,58.33
2023-02-28T15:41:43.057Z,57.86
2023-02-28T15:44:47.987Z,57.59
2023-02-28T15:47:53.623Z,58.23
2023-02-28T15:51:19.114Z,58.71
2023-02-28T15:54:36.679Z,57.90
2023-02-28T15:57:42.523Z,59.69
2023-02-28T16:00:51.015Z,57.53
2023-02-28T16:03:58.553Z,60.37
2023-02-28T16:07:05.571Z,58.63
2023-02-28T16:10:12.146Z,60.20
2023-02-28T16:13:17.774Z,60.54
2023-02-28T16:16:24.141Z,59.39
2023-02-28T16:19:28.467Z,60.47
2023-02-28T16:22:32.673Z,61.46
2023-02-28T16:25:40.665Z,61.48
2023-02-28T16:28:46.026Z,61.82
2023-02-28T16:31:50.541Z,61.84
2023-02-28T16:34:54.946Z,59.79
2023-02-28T16:37:58.855Z,60.17
2023-02-28T16:41:03.341Z,60.91
2023-02-28T16:44:15.555Z,59.65
2023-02-28T16:47:20.293Z,61.84
2023-02-28T16:50:27.752Z,61.10
2023-02-28T16:53:31.654Z,60.82
2023-02-28T16:56:37.118Z,61.23
2023-02-28T16:59:42.044Z,62.14
2023-02-28T17:02:46.770Z,61.88
2023-02-28T17:05:51.200Z,61.53
2023-02-28T17:08:56.661Z,61.69
2023-02-28T17:12:01.337Z,62.24
2023-02-28T17:15:06.118Z,62.01
2023-02-28T17:18:22.985Z,61.66
2023-02-28T17:21:27.513Z,61.86
2023-02-28T17:24:31.865Z,62.00
2023-02-28T17:27:36.355Z,62.08
2023-02-28T17:30:42.491Z,62.34
2023-02-28T17:33:47.002Z,62.67
2023-02-28T17:36:54.028Z,61.88
2023-02-28T17:39:58.457Z,61.82
2023-02-28T17:43:02.831Z,62.53
2023-02-28T17:46:09.230Z,63.09
2023-02-28T17:49:13.698Z,61.88
2023-02-28T17:52:18.136Z,62.95
2023-02-28T17:55:22.547Z,62.15
2023-02-28T17:58:27.040Z,62.19
2023-02-28T18:01:31.494Z,62.02
2023-02-28T18:04:36.085Z,62.41
2023-02-28T18:07:41.230Z,62.92
2023-02-28T18:10:45.788Z,62.62
2023-02-28T18:13:52.817Z,62.26
2023-02-28T18:16:58.304Z,63.54
2023-02-28T18:20:02.874Z,63.75
2023-02-28T18:23:07.089Z,63.67
2023-02-28T18:26:11.761Z,64.02
2023-02-28T18:29:23.233Z,64.05
2023-02-28T18:32:28.935Z,63.93
2023-02-28T18:35:36.487Z,62.57
2023-02-28T18:38:41.434Z,62.85
2023-02-28T18:41:45.422Z,63.39
2023-02-28T18:44:49.157Z,64.15
2023-02-28T18:47:53.378Z,63.47
2023-02-28T18:50:58.497Z,64.30
2023-02-28T18:54:02.891Z,62.84
2023-02-28T18:57:07.333Z,63.03
2023-02-28T19:00:13.901Z,63.39
2023-02-28T19:03:18.293Z,62.36
2023-02-28T19:06:22.991Z,63.17
2023-02-28T19:09:27.348Z,62.71
2023-02-28T19:12:36.212Z,62.62
2023-02-28T19:15:40.779Z,62.20
2023-02-28T19:18:45.259Z,62.56
2023-02-28T19:21:48.959Z,62.25
2023-02-28T19:24:53.882Z,62.32
2023-02-28T19:27:58.614Z,63.82
2023-02-28T19:31:02.993Z,62.29
2023-02-28T19:34:07.326Z,62.33
2023-02-28T19:37:11.881Z,62.76
2023-02-28T19:40:16.514Z,62.69
2023-02-28T19:43:20.700Z,62.42
2023-02-28T19:46:24.964Z,62.64
2023-02-28T19:49:29.266Z,63.01
2023-02-28T19:52:33.971Z,62.71
2023-02-28T19:55:39.335Z,63.12
2023-02-28T19:58:43.774Z,63.19
2023-02-28T20:01:48.388Z,63.28
2023-02-28T20:04:52.895Z,62.62
2023-02-28T20:07:57.599Z,62.56
2023-02-28T20:11:16.495Z,62.18
2023-02-28T20:14:21.042Z,62.49
2023-02-28T20:17:25.853Z,63.13
2023-02-28T20:20:30.152Z,63.18
2023-02-28T20:23:34.458Z,62.69
2023-02-28T20:26:39.351Z,62.62
2023-02-28T20:29:43.548Z,62.29
2023-02-28T20:32:47.498Z,62.01
2023-02-28T20:35:53.572Z,62.52
2023-02-28T20:39:00.168Z,62.69
2023-02-28T20:42:04.815Z,62.52
2023-02-28T20:45:09.807Z,64.59
2023-02-28T20:48:14.164Z,64.55
2023-02-28T20:51:18.416Z,63.89
2023-02-28T20:54:23.007Z,64.60
2023-02-28T20:57:30.955Z,64.96
2023-02-28T21:00:35.524Z,64.92
2023-02-28T21:03:41.275Z,62.76
2023-02-28T21:06:47.052Z,62.59
2023-02-28T21:09:51.290Z,62.78
2023-02-28T21:12:58.451Z,64.23
2023-02-28T21:16:11.034Z,65.01
2023-02-28T21:19:15.703Z,64.37
2023-02-28T21:22:20.572Z,65.06
2023-02-28T21:25:24.770Z,65.67
2023-02-28T21:28:29.174Z,65.76
2023-02-28T21:31:35.033Z,66.24
2023-02-28T21:34:39.670Z,65.39
2023-02-28T21:37:44.958Z,65.79
2023-02-28T21:40:52.140Z,66.04
2023-02-28T21:43:57.787Z,65.93
2023-02-28T21:47:03.507Z,65.73
2023-02-28T21:50:08.469Z,65.07
2023-02-28T21:53:13.022Z,66.27
2023-02-28T21:56:28.446Z,65.99
2023-02-28T21:59:32.925Z,65.26
2023-02-28T22:02:37.942Z,63.97
2023-02-28T22:05:42.004Z,64.44
2023-02-28T22:08:49.012Z,65.16
2023-02-28T22:11:53.816Z,65.14
2023-02-28T22:14:57.821Z,65.41
2023-02-28T22:18:01.829Z,64.84
2023-02-28T22:21:07.270Z,64.73
2023-02-28T22:24:12.427Z,64.22
2023-02-28T22:27:16.793Z,63.47
2023-02-28T22:30:21.183Z,63.61
2023-02-28T22:33:25.556Z,64.01
2023-02-28T22:36:31.199Z,64.91
2023-02-28T22:39:35.645Z,63.59
2023-02-28T22:42:40.278Z,64.55
2023-02-28T22:45:44.621Z,64.23
2023-02-28T22:48:49.745Z,63.52
2023-02-28T22:51:53.733Z,64.04
2023-02-28T22:54:57.429Z,63.82
2023-02-28T22:58:01.688Z,63.12
2023-02-28T23:01:15.913Z,58.30
2023-02-28T23:04:20.354Z,57.08
2023-02-28T23:07:25.034Z,58.64
2023-02-28T23:10:29.486Z,57.67
2023-02-28T23:13:33.992Z,54.28
2023-02-28T23:16:48.590Z,54.40
2023-02-28T23:19:53.001Z,50.14
2023-02-28T23:22:57.285Z,50.76
2023-02-28T23:26:01.844Z,50.27
2023-02-28T23:29:07.119Z,54.31
2023-02-28T23:32:11.579Z,52.79
2023-02-28T23:35:16.752Z,51.08
2023-02-28T23:38:21.309Z,49.48
2023-02-28T23:41:26.481Z,49.36
2023-02-28T23:44:30.907Z,48.58
2023-02-28T23:47:35.371Z,49.64
2023-02-28T23:50:39.940Z,48.43
2023-02-28T23:53:48.643Z,49.74
2023-02-28T23:56:52.661Z,49.99
2023-02-28T23:59:57.693Z,50.12
